Time;durP1;ratioP1;P1;durP2;ratioP2;P2;SDS_P1;SDS_P2;PMS_P1;PMS_P2;Temp;Humidity;BMP_temperature;BMP_pressure;BME280_temperature;BME280_humidity;BME280_pressure;Samples;Min_cycle;Max_cycle;Signal;HPM_P1;HPM_P2
2021/01/13 04:04:27;;;;;;;37.80;16.40;;;;;;;-2.22;67.07;99307.91;1760912;79;22766;-68
2021/01/13 04:07:01;;;;;;;28.47;15.28;;;;;;;-2.26;67.03;99309.70;1728744;81;21141;-68
2021/01/13 04:09:31;;;;;;;31.10;14.95;;;;;;;-2.28;67.05;99301.98;1707731;83;21076;-68
2021/01/13 04:12:14;;;;;;;32.55;16.23;;;;;;;-2.30;67.13;99294.27;1707812;83;20965;-70
2021/01/13 04:14:51;;;;;;;32.38;14.75;;;;;;;-2.26;66.98;99292.13;1707647;83;20954;-69
2021/01/13 04:17:19;;;;;;;31.05;15.38;;;;;;;-2.31;67.04;99285.25;1707992;83;20954;-69
2021/01/13 04:19:48;;;;;;;34.08;16.73;;;;;;;-2.34;67.40;99281.13;1707855;83;20930;-71
2021/01/13 04:22:18;;;;;;;27.93;15.73;;;;;;;-2.29;67.53;99286.70;1723255;82;21447;-71
2021/01/13 04:24:48;;;;;;;37.85;17.52;;;;;;;-2.29;67.53;99286.70;1707618;83;22090;-69
2021/01/13 04:27:17;;;;;;;31.62;16.40;;;;;;;-2.30;67.60;99285.09;1693176;84;20968;-69
2021/01/13 04:29:48;;;;;;;32.70;16.10;;;;;;;-2.30;67.58;99282.93;1692298;84;21063;-69
2021/01/13 04:32:16;;;;;;;32.33;15.25;;;;;;;-2.28;67.61;99280.98;1693102;84;21162;-69
2021/01/13 04:34:45;;;;;;;29.57;15.10;;;;;;;-2.33;67.64;99269.63;1692034;84;21308;-71
2021/01/13 04:37:13;;;;;;;33.07;15.93;;;;;;;-2.35;67.99;99270.29;1690882;84;21702;-70
2021/01/13 04:39:41;;;;;;;35.23;15.05;;;;;;;-2.41;68.41;99259.63;1693364;84;21383;-69
2021/01/13 04:42:14;;;;;;;25.02;13.03;;;;;;;-2.43;68.77;99255.02;1692027;84;21528;-73
2021/01/13 04:45:06;;;;;;;26.40;14.87;;;;;;;-2.31;68.60;99259.80;1707947;83;21172;-73
2021/01/13 04:47:48;;;;;;;37.33;17.10;;;;;;;-2.18;68.54;99259.81;1725998;82;21340;-71
2021/01/13 04:50:19;;;;;;;31.57;14.68;;;;;;;-2.05;68.32;99244.38;1724835;82;20962;-69
2021/01/13 04:52:48;;;;;;;30.77;17.15;;;;;;;-1.92;68.03;99253.09;1724039;82;20954;-69
2021/01/13 04:55:23;;;;;;;28.87;14.43;;;;;;;-1.86;67.81;99247.67;1714008;83;21073;-68
2021/01/13 04:58:05;;;;;;;34.08;17.82;;;;;;;-1.83;67.91;99250.78;1716145;83;21161;-65
2021/01/13 05:01:39;;;;;;;33.48;18.05;;;;;;;-1.59;67.94;99244.70;1826234;78;22859;-66
2021/01/13 05:04:15;;;;;;;39.53;19.55;;;;;;;-1.49;67.87;99234.48;1830846;77;20990;-65
2021/01/13 05:06:52;;;;;;;34.25;17.80;;;;;;;-1.43;67.81;99233.81;1832709;77;21195;-65
2021/01/13 05:09:20;;;;;;;36.33;17.85;;;;;;;-1.37;67.95;99231.84;1827878;77;21041;-65
2021/01/13 05:11:49;;;;;;;;;;;;;;;-1.33;68.16;99218.66;1831947;77;21701;-67
2021/01/13 05:14:18;;;;;;;34.90;17.75;;;;;;;-1.33;68.35;99228.38;1834048;77;21725;-66
2021/01/13 05:16:52;;;;;;;36.85;18.37;;;;;;;-1.31;68.54;99222.44;1828994;77;21029;-67
2021/01/13 05:19:41;;;;;;;35.35;19.05;;;;;;;-1.25;68.66;99214.70;1833007;77;21359;-67
2021/01/13 05:22:12;;;;;;;37.15;18.73;;;;;;;-1.17;68.72;99215.17;1810258;77;21045;-67
2021/01/13 05:24:40;;;;;;;34.90;17.42;;;;;;;-1.11;68.76;99222.87;1828312;77;20931;-68
2021/01/13 05:27:17;;;;;;;40.95;20.57;;;;;;;-1.11;68.81;99228.95;1834018;77;21002;-67
2021/01/13 05:29:51;;;;;;;35.40;18.60;;;;;;;-1.04;69.00;99236.99;1819340;78;22425;-67
2021/01/13 05:32:19;;;;;;;36.10;19.27;;;;;;;-0.99;68.94;99228.58;1732422;79;21057;-68
2021/01/13 05:34:49;;;;;;;37.40;20.35;;;;;;;-0.90;68.86;99218.34;1733492;79;21372;-66
2021/01/13 05:37:29;;;;;;;40.58;20.37;;;;;;;-0.84;68.80;99211.09;1795097;79;21042;-67
2021/01/13 05:39:58;;;;;;;40.75;19.40;;;;;;;-0.74;68.73;99201.65;1792261;79;21555;-66
2021/01/13 05:42:27;;;;;;;43.75;19.73;;;;;;;-0.66;68.62;99206.88;1790249;79;26812;-68
2021/01/13 05:44:54;;;;;;;39.95;21.10;;;;;;;-0.60;68.50;99206.69;1794371;79;21077;-67
2021/01/13 05:47:55;;;;;;;39.60;18.67;;;;;;;-0.59;68.35;99217.52;1733596;79;21392;-66
2021/01/13 05:50:24;;;;;;;33.50;18.75;;;;;;;-0.56;68.13;99227.70;1786268;79;20963;-67
2021/01/13 05:52:54;;;;;;;39.30;20.35;;;;;;;-0.56;68.07;99219.33;1780717;79;21062;-66
2021/01/13 05:55:24;;;;;;;38.05;20.85;;;;;;;-0.54;67.92;99208.61;1759148;80;21132;-65
2021/01/13 05:57:57;;;;;;;;;;;;;;;-0.60;67.93;99194.84;1759537;80;21002;-67
2021/01/13 06:00:27;;;;;;;40.88;20.52;;;;;;;-0.66;68.01;99200.30;1757760;79;21382;-67
2021/01/13 06:03:04;;;;;;;39.67;20.60;;;;;;;-0.65;68.15;99203.73;1759189;80;21057;-70
2021/01/13 06:05:33;;;;;;;39.10;19.50;;;;;;;-0.61;68.12;99196.63;1759797;80;21052;-65
2021/01/13 06:08:03;;;;;;;39.03;20.45;;;;;;;-0.60;67.96;99192.20;1756229;80;20950;-64
2021/01/13 06:10:35;;;;;;;38.83;19.10;;;;;;;-0.61;68.07;99191.37;1757507;80;20930;-65
2021/01/13 06:13:05;;;;;;;37.17;20.02;;;;;;;-0.57;68.03;99194.48;1764762;80;21373;-65
2021/01/13 06:15:34;;;;;;;40.65;20.40;;;;;;;-0.50;68.02;99193.27;1759468;80;21073;-71
2021/01/13 06:18:03;;;;;;;44.88;21.48;;;;;;;-0.42;67.98;99194.55;1763714;80;21002;-68
2021/01/13 06:20:31;;;;;;;40.90;19.55;;;;;;;-0.39;67.54;99196.83;1756814;80;20950;-68
2021/01/13 06:23:03;;;;;;;38.73;19.23;;;;;;;-0.45;67.59;99181.23;1760288;80;21484;-67
2021/01/13 06:25:31;;;;;;;36.48;19.50;;;;;;;-0.44;67.66;99180.72;1733773;80;21386;-69
2021/01/13 06:28:14;;;;;;;39.53;19.73;;;;;;;-0.38;67.64;99177.41;1758680;80;21094;-67
2021/01/13 06:30:43;;;;;;;39.98;19.10;;;;;;;-0.32;67.59;99184.59;1766718;80;21140;-67
2021/01/13 06:33:23;;;;;;;38.90;18.40;;;;;;;-0.28;67.50;99175.83;1761043;80;21080;-68
2021/01/13 06:36:32;;;;;;;37.00;16.85;;;;;;;-0.21;67.51;99170.19;1767355;80;21650;-68
2021/01/13 06:39:08;;;;;;;34.78;16.62;;;;;;;-0.06;67.25;99163.63;1817531;78;22364;-69
2021/01/13 06:41:46;;;;;;;35.17;18.20;;;;;;;-0.10;66.67;99164.50;1787679;79;20931;-67
2021/01/13 06:44:15;;;;;;;33.53;16.37;;;;;;;-0.16;66.73;99166.53;1792690;79;21361;-67
2021/01/13 06:46:44;;;;;;;32.30;15.68;;;;;;;-0.16;66.66;99159.11;1789500;79;21030;-68
2021/01/13 06:49:16;;;;;;;36.30;16.75;;;;;;;-0.17;66.54;99152.22;1790442;79;21041;-68
2021/01/13 06:51:49;;;;;;;30.43;14.65;;;;;;;-0.15;66.53;99146.27;1788883;79;21081;-69
2021/01/13 06:54:19;;;;;;;28.10;14.35;;;;;;;-0.19;66.31;99145.81;1759821;80;21081;-67
2021/01/13 06:56:56;;;;;;;29.82;14.20;;;;;;;-0.23;66.55;99140.06;1759833;80;21377;-68
2021/01/13 06:59:25;;;;;;;29.75;16.52;;;;;;;-0.21;66.65;99139.41;1762935;80;20966;-68
2021/01/13 07:01:59;;;;;;;27.32;14.75;;;;;;;-0.21;66.64;99151.27;1759150;80;21001;-68
2021/01/13 07:04:27;;;;;;;30.60;14.50;;;;;;;-0.22;66.58;99144.83;1760819;80;21204;-69
2021/01/13 07:07:08;;;;;;;18.23;11.35;;;;;;;-0.23;66.75;99141.89;1759021;80;20923;-70
2021/01/13 07:09:45;;;;;;;30.23;14.93;;;;;;;-0.17;66.97;99136.41;1819106;78;21830;-70
2021/01/13 07:12:25;;;;;;;31.35;14.40;;;;;;;-0.19;66.86;99130.01;1791144;79;21061;-70
2021/01/13 07:14:58;;;;;;;28.23;13.75;;;;;;;-0.14;66.82;99119.73;1789868;79;21193;-69
2021/01/13 07:17:28;;;;;;;29.95;15.88;;;;;;;-0.07;66.44;99114.08;1791446;79;21010;-69
2021/01/13 07:19:57;;;;;;;29.70;15.20;;;;;;;-0.04;66.54;99115.03;1789654;79;21049;-73
2021/01/13 07:22:27;;;;;;;30.32;14.35;;;;;;;0.00;66.57;99107.59;1789911;79;20926;-72
2021/01/13 07:24:55;;;;;;;32.78;16.15;;;;;;;0.01;66.37;99096.03;1791583;79;21061;-73
2021/01/13 07:27:23;;;;;;;28.30;16.00;;;;;;;0.05;66.18;99096.00;1790264;79;21331;-72
2021/01/13 07:29:51;;;;;;;31.57;14.80;;;;;;;0.04;66.06;99089.59;1790448;79;20927;-71
2021/01/13 07:32:27;;;;;;;24.37;12.65;;;;;;;0.04;66.00;99093.04;1791875;79;21020;-71
2021/01/13 07:34:55;;;;;;;28.35;13.38;;;;;;;0.07;66.15;99096.63;1791515;79;21112;-68
2021/01/13 07:37:25;;;;;;;24.95;13.60;;;;;;;0.13;65.92;99093.30;1695410;79;21040;-69
2021/01/13 07:40:32;;;;;;;23.50;12.78;;;;;;;0.14;65.93;99093.59;1792446;79;21325;-68
2021/01/13 07:43:11;;;;;;;21.25;11.25;;;;;;;0.17;65.86;99087.95;1797122;79;21077;-73
2021/01/13 07:45:47;;;;;;;21.45;11.50;;;;;;;0.17;65.58;99078.73;1793466;79;21584;-71
2021/01/13 07:48:47;;;;;;;26.02;12.35;;;;;;;0.15;65.63;99075.98;1794861;79;20946;-71
2021/01/13 07:51:18;;;;;;;18.95;10.70;;;;;;;0.19;65.62;99072.47;1733536;79;21085;-72
2021/01/13 07:53:51;;;;;;;15.20;8.75;;;;;;;0.16;65.27;99065.73;1781203;79;21359;-71
2021/01/13 07:56:20;;;;;;;20.92;10.90;;;;;;;0.06;65.23;99061.23;1773979;80;21156;-67
2021/01/13 07:59:08;;;;;;;18.37;10.58;;;;;;;0.04;65.21;99061.92;1747296;80;21112;-74
2021/01/13 08:02:19;;;;;;;20.02;9.85;;;;;;;0.00;65.17;99053.58;1776157;80;21622;-77
2021/01/13 08:05:44;;;;;;;18.80;10.82;;;;;;;-0.14;65.00;99042.02;1772408;80;21108;-75
2021/01/13 08:08:12;;;;;;;23.05;11.68;;;;;;;-0.29;65.60;99043.33;1775116;80;21184;-75
2021/01/13 08:10:42;;;;;;;18.85;9.90;;;;;;;-0.20;65.85;99046.19;1779294;78;21522;-75
2021/01/13 08:13:42;;;;;;;18.20;9.48;;;;;;;-0.08;65.66;99050.51;1727350;80;21136;-75
2021/01/13 08:16:45;;;;;;;16.95;9.53;;;;;;;-0.03;65.28;99046.01;1778494;80;21128;-73
2021/01/13 08:19:59;;;;;;;16.10;9.23;;;;;;;-0.09;65.00;99052.84;1775351;80;21112;-70
2021/01/13 08:22:29;;;;;;;19.05;10.35;;;;;;;-0.21;65.39;99051.16;1776906;80;21412;-70
2021/01/13 08:25:02;;;;;;;19.20;9.73;;;;;;;-0.15;65.80;99051.42;1778928;79;21554;-68
2021/01/13 08:27:30;;;;;;;16.02;9.25;;;;;;;-0.03;65.93;99055.23;1778381;80;21536;-70
2021/01/13 08:29:58;;;;;;;15.93;9.00;;;;;;;0.08;65.70;99052.15;1778460;80;21021;-73
2021/01/13 08:32:38;;;;;;;19.17;9.23;;;;;;;0.15;65.61;99047.79;1778607;79;21069;-68
2021/01/13 08:35:07;;;;;;;16.07;9.30;;;;;;;0.22;65.50;99047.89;1775760;80;21623;-73
2021/01/13 08:37:35;;;;;;;;;;;;;;;0.33;65.49;99050.04;1781027;80;20950;-70
2021/01/13 08:40:27;;;;;;;16.70;8.40;;;;;;;0.42;65.12;99052.08;1778723;80;20203;-70
2021/01/13 08:43:09;;;;;;;15.15;9.05;;;;;;;0.47;65.14;99046.24;1775625;80;20978;-72
2021/01/13 08:45:46;;;;;;;15.10;8.53;;;;;;;0.52;64.69;99032.83;1769354;80;21084;-71
2021/01/13 08:48:22;;;;;;;15.65;8.88;;;;;;;0.56;64.75;99022.73;1778295;80;21400;-68
2021/01/13 08:51:11;;;;;;;13.83;8.90;;;;;;;0.62;64.56;99015.39;1768753;80;21164;-66
2021/01/13 08:53:40;;;;;;;14.75;8.03;;;;;;;0.68;64.37;99013.32;1774364;80;20982;-64
2021/01/13 08:56:09;;;;;;;12.93;7.92;;;;;;;0.69;64.26;99012.81;1775513;80;21165;-65
2021/01/13 08:58:36;;;;;;;14.18;8.58;;;;;;;0.70;64.15;99007.34;1775737;80;21199;-65
2021/01/13 09:01:08;;;;;;;17.73;9.23;;;;;;;0.74;64.16;99000.38;1704269;80;21381;-64
2021/01/13 09:03:44;;;;;;;19.10;9.78;;;;;;;0.77;64.03;98990.28;1776850;79;21595;-65
2021/01/13 09:06:24;;;;;;;16.95;9.45;;;;;;;0.76;64.24;98984.67;1776564;79;21579;-65
2021/01/13 09:08:53;;;;;;;21.15;9.35;;;;;;;0.80;64.04;98993.05;1758598;79;21167;-65
2021/01/13 09:11:38;;;;;;;17.42;9.38;;;;;;;0.72;63.45;98986.56;1753877;81;21154;-67
2021/01/13 09:14:26;;;;;;;17.37;8.15;;;;;;;0.63;63.64;98980.59;1764101;81;21349;-66
2021/01/13 09:16:55;;;;;;;19.02;8.70;;;;;;;0.57;63.58;98982.15;1764046;81;21052;-66
2021/01/13 09:19:35;;;;;;;18.92;9.03;;;;;;;0.55;63.92;98980.22;1752212;81;21552;-68
2021/01/13 09:22:07;;;;;;;15.03;8.33;;;;;;;0.63;64.02;98978.79;1762008;81;21034;-68
2021/01/13 09:24:42;;;;;;;15.88;8.25;;;;;;;0.79;64.10;98975.58;1763348;81;20930;-65
2021/01/13 09:27:18;;;;;;;15.90;8.43;;;;;;;1.01;63.83;98971.11;1829655;76;22792;-67
2021/01/13 09:29:53;;;;;;;20.23;9.80;;;;;;;1.10;63.74;98958.59;1794794;79;20950;-67
2021/01/13 09:32:22;;;;;;;18.27;9.30;;;;;;;1.23;63.38;98949.45;1804615;77;21348;-67
2021/01/13 09:34:53;;;;;;;13.43;7.03;;;;;;;1.31;63.05;98950.64;1807346;77;21076;-67
2021/01/13 09:37:22;;;;;;;17.73;6.90;;;;;;;1.34;62.36;98945.45;1798312;79;21088;-68
2021/01/13 09:40:00;;;;;;;12.43;6.97;;;;;;;1.29;62.62;98937.31;1798382;79;21204;-68
2021/01/13 09:42:39;;;;;;;16.17;8.13;;;;;;;1.31;62.50;98940.08;1798954;79;21013;-67
2021/01/13 09:45:08;;;;;;;11.30;6.85;;;;;;;1.29;62.15;98931.52;1797241;79;21430;-63
2021/01/13 09:47:37;;;;;;;19.60;8.98;;;;;;;1.30;62.22;98926.55;1797946;79;21587;-68
2021/01/13 09:50:07;;;;;;;12.43;6.42;;;;;;;1.35;62.17;98914.89;1801843;79;21036;-67
2021/01/13 09:52:43;;;;;;;13.48;7.92;;;;;;;1.41;61.74;98918.59;1794818;79;21199;-66
2021/01/13 09:55:20;;;;;;;16.27;9.43;;;;;;;1.43;61.59;98906.51;1803663;78;28449;-67
2021/01/13 09:57:48;;;;;;;12.85;7.10;;;;;;;1.48;61.50;98904.11;1736147;79;20939;-67
2021/01/13 10:00:16;;;;;;;18.85;8.58;;;;;;;1.43;60.68;98899.42;1807316;78;21336;-65
2021/01/13 10:02:48;;;;;;;14.38;6.92;;;;;;;1.38;61.23;98900.01;1806471;79;21054;-66
2021/01/13 10:05:17;;;;;;;11.85;6.80;;;;;;;1.39;61.16;98900.81;1809240;77;20935;-66
2021/01/13 10:07:46;;;;;;;12.35;7.03;;;;;;;1.40;60.80;98895.85;1807846;79;21003;-68
2021/01/13 10:10:15;;;;;;;11.73;6.35;;;;;;;1.40;60.62;98888.73;1735551;79;21563;-68
2021/01/13 10:12:49;;;;;;;17.07;7.03;;;;;;;1.41;60.67;98897.46;1711867;79;21263;-67
2021/01/13 10:15:17;;;;;;;16.85;6.78;;;;;;;1.40;60.41;98893.20;1806621;79;21002;-67
2021/01/13 10:17:46;;;;;;;12.58;7.35;;;;;;;1.37;60.62;98889.13;1807593;79;21045;-66
2021/01/13 10:20:17;;;;;;;16.12;7.53;;;;;;;1.31;60.17;98890.39;1807673;79;20990;-66
2021/01/13 10:22:47;;;;;;;9.80;6.00;;;;;;;1.19;60.44;98882.20;1807978;79;21085;-68
2021/01/13 10:25:29;;;;;;;13.10;8.40;;;;;;;1.09;60.02;98883.04;1808125;79;21369;-67
2021/01/13 10:27:59;;;;;;;13.38;7.45;;;;;;;0.84;60.35;98884.78;1806564;79;21412;-68
2021/01/13 10:30:29;;;;;;;9.90;6.17;;;;;;;0.73;61.02;98868.98;1807588;78;21619;-67
2021/01/13 10:32:57;;;;;;;13.95;7.17;;;;;;;0.73;60.98;98858.42;1807704;79;21496;-67
2021/01/13 10:35:37;;;;;;;12.45;7.60;;;;;;;0.63;61.06;98854.81;1803933;79;21089;-68
2021/01/13 10:38:05;;;;;;;16.27;7.20;;;;;;;0.59;61.30;98849.60;1804766;79;21378;-69
2021/01/13 10:40:33;;;;;;;15.43;8.93;;;;;;;0.65;61.58;98849.34;1807760;79;21057;-68
2021/01/13 10:43:01;;;;;;;13.08;7.22;;;;;;;0.60;61.15;98841.98;1804351;79;21670;-67
2021/01/13 10:45:30;;;;;;;14.05;7.03;;;;;;;0.44;61.53;98837.81;1806649;79;20994;-67
2021/01/13 10:48:00;;;;;;;13.43;6.67;;;;;;;0.46;61.86;98837.11;1804305;79;21097;-66
2021/01/13 10:50:31;;;;;;;16.25;7.30;;;;;;;0.54;61.83;98832.20;1807684;79;21373;-67
2021/01/13 10:53:00;;;;;;;11.12;6.58;;;;;;;0.63;61.83;98831.56;1794118;79;20938;-66
2021/01/13 10:55:32;;;;;;;13.00;6.70;;;;;;;0.67;61.73;98822.27;1766308;80;21690;-68
2021/01/13 10:58:00;;;;;;;15.20;7.47;;;;;;;0.62;60.86;98816.73;1765758;81;21144;-67
2021/01/13 11:00:29;;;;;;;12.37;6.83;;;;;;;0.40;61.12;98811.51;1706031;81;21066;-65
2021/01/13 11:02:59;;;;;;;11.00;6.65;;;;;;;0.30;61.39;98806.55;1765800;81;21336;-67
2021/01/13 11:05:27;;;;;;;16.85;9.23;;;;;;;0.20;61.29;98813.95;1761456;81;21065;-69
2021/01/13 11:07:58;;;;;;;12.80;6.57;;;;;;;0.19;61.60;98811.00;1765543;81;21002;-68
2021/01/13 11:10:27;;;;;;;15.35;7.25;;;;;;;0.25;61.50;98797.57;1765250;81;21097;-67
2021/01/13 11:13:02;;;;;;;14.13;7.47;;;;;;;0.22;61.08;98800.11;1760464;81;21133;-67
2021/01/13 11:15:31;;;;;;;15.88;7.65;;;;;;;0.08;61.03;98807.06;1757441;81;21624;-66
2021/01/13 11:17:59;;;;;;;15.68;7.83;;;;;;;-0.11;61.58;98807.17;1765233;81;21090;-67
2021/01/13 11:20:30;;;;;;;13.50;7.03;;;;;;;-0.10;62.13;98809.33;1764440;81;20943;-69
2021/01/13 11:23:01;;;;;;;14.40;7.83;;;;;;;-0.10;61.96;98802.73;1765156;81;21807;-67
2021/01/13 11:25:37;;;;;;;12.43;6.08;;;;;;;-0.08;62.03;98802.84;1765190;81;20934;-68
2021/01/13 11:28:13;;;;;;;10.82;5.05;;;;;;;-0.05;61.72;98785.84;1765277;81;21455;-69
2021/01/13 11:30:45;;;;;;;11.73;7.20;;;;;;;-0.10;61.91;98786.92;1762280;81;21152;-66
2021/01/13 11:33:15;;;;;;;10.93;6.58;;;;;;;-0.06;62.22;98786.36;1765272;81;21632;-66
2021/01/13 11:35:46;;;;;;;10.63;6.90;;;;;;;0.01;62.20;98787.73;1761576;81;21089;-65
2021/01/13 11:38:37;;;;;;;13.15;7.15;;;;;;;0.05;61.93;98785.55;1762258;81;21189;-69
2021/01/13 11:41:23;;;;;;;13.65;7.00;;;;;;;0.11;61.62;98783.47;1762787;81;21195;-68
2021/01/13 11:44:39;;;;;;;9.63;5.58;;;;;;;0.06;61.77;98783.20;1817162;78;22760;-70
2021/01/13 11:47:23;;;;;;;19.20;9.25;;;;;;;0.01;61.84;98772.43;1790045;79;20895;-67
2021/01/13 11:49:53;;;;;;;17.95;10.28;;;;;;;-0.05;61.95;98777.44;1791029;79;21381;-66
2021/01/13 11:52:24;;;;;;;14.07;8.13;;;;;;;-0.10;62.38;98782.98;1788458;79;21029;-67
2021/01/13 11:54:54;;;;;;;15.05;9.25;;;;;;;-0.05;62.34;98785.84;1789335;79;21038;-66
2021/01/13 12:00:16;;;;;;;18.25;9.83;;;;;;;-0.09;62.37;98772.25;1828835;78;22698;-65
2021/01/13 12:02:51;;;;;;;16.45;8.83;;;;;;;-0.16;62.44;98770.05;1829974;77;20986;-66
2021/01/13 12:05:34;;;;;;;16.97;8.08;;;;;;;-0.23;62.41;98775.23;1831354;77;21371;-68
2021/01/13 12:08:07;;;;;;;15.45;8.15;;;;;;;-0.22;62.48;98771.61;1826294;77;21049;-67
2021/01/13 12:10:43;;;;;;;17.82;8.33;;;;;;;-0.16;62.50;98769.21;1830055;77;20997;-65
2021/01/13 12:13:29;;;;;;;15.65;8.38;;;;;;;-0.07;62.48;98770.74;1826418;77;20887;-66
2021/01/13 12:16:02;;;;;;;18.65;9.23;;;;;;;0.04;62.35;98767.58;1832505;77;21488;-65
2021/01/13 12:18:36;;;;;;;16.07;8.90;;;;;;;0.11;62.02;98749.20;1830956;77;21476;-68
2021/01/13 12:21:18;;;;;;;17.07;9.05;;;;;;;0.13;61.91;98738.80;1833295;77;21122;-68
2021/01/13 12:23:46;;;;;;;16.42;8.58;;;;;;;0.13;61.80;98741.44;1833028;77;20986;-67
2021/01/13 12:26:35;;;;;;;16.83;8.97;;;;;;;0.20;61.59;98728.81;1830241;77;20978;-68
2021/01/13 12:29:11;;;;;;;16.53;9.27;;;;;;;0.21;61.41;98736.52;1832917;77;21575;-66
2021/01/13 12:31:46;;;;;;;13.70;8.23;;;;;;;0.19;61.39;98726.66;1829447;77;21391;-66
2021/01/13 12:34:24;;;;;;;15.13;8.33;;;;;;;0.21;61.07;98713.28;1831678;77;21634;-66
2021/01/13 12:36:54;;;;;;;16.48;8.88;;;;;;;0.16;60.87;98718.65;1830061;77;21117;-68
2021/01/13 12:39:31;;;;;;;16.65;9.98;;;;;;;0.11;61.17;98720.22;1829207;77;21559;-65
2021/01/13 12:42:03;;;;;;;20.25;10.18;;;;;;;0.16;61.26;98714.69;1831994;77;21143;-66
2021/01/13 12:44:33;;;;;;;14.63;8.28;;;;;;;0.25;61.18;98709.27;1825370;77;21188;-68
2021/01/13 12:47:09;;;;;;;14.55;7.75;;;;;;;0.29;61.00;98700.78;1831706;77;21180;-66
2021/01/13 12:49:34;;;;;;;16.45;8.50;;;;;;;0.27;60.80;98693.58;1827278;77;21014;-65
2021/01/13 12:52:01;;;;;;;10.28;6.08;;;;;;;0.16;60.75;98703.31;1830803;77;21180;-65
2021/01/13 12:54:29;;;;;;;15.25;7.92;;;;;;;0.08;61.47;98697.69;1811555;77;21033;-67
2021/01/13 12:56:58;;;;;;;14.58;8.03;;;;;;;0.04;61.62;98711.44;1814906;79;21371;-66
2021/01/13 12:59:26;;;;;;;11.22;7.03;;;;;;;0.01;61.95;98703.41;1809599;79;21193;-68
2021/01/13 13:01:54;;;;;;;12.60;7.12;;;;;;;0.03;62.18;98705.37;1800665;79;21002;-69
2021/01/13 13:04:22;;;;;;;9.70;6.00;;;;;;;0.07;62.15;98707.11;1796993;79;21011;-66
2021/01/13 13:06:50;;;;;;;14.40;7.40;;;;;;;0.08;62.26;98701.64;1803179;78;21425;-67
2021/01/13 13:09:17;;;;;;;14.45;7.83;;;;;;;0.12;62.30;98691.55;1724397;81;21429;-67
2021/01/13 13:11:47;;;;;;;13.22;6.90;;;;;;;0.16;62.14;98696.73;1766716;81;21204;-67
2021/01/13 13:14:15;;;;;;;12.50;6.92;;;;;;;0.17;62.06;98684.67;1768885;81;21890;-67
2021/01/13 13:16:44;;;;;;;12.45;6.60;;;;;;;0.19;61.80;98690.27;1768642;81;21028;-67
2021/01/13 13:19:13;;;;;;;10.82;6.90;;;;;;;0.15;61.84;98693.29;1765649;81;21564;-67
2021/01/13 13:21:42;;;;;;;9.95;6.35;;;;;;;0.15;61.70;98691.97;1766445;80;21348;-67
2021/01/13 13:24:11;;;;;;;12.43;6.97;;;;;;;0.12;61.63;98700.78;1767835;81;21119;-68
2021/01/13 13:26:40;;;;;;;11.50;6.30;;;;;;;0.06;61.63;98697.56;1768896;81;21586;-68
2021/01/13 13:29:07;;;;;;;13.30;7.50;;;;;;;-0.05;61.72;98700.22;1768643;81;21184;-66
2021/01/13 13:31:36;;;;;;;;;;;;;;;-0.13;61.95;98702.49;1771460;81;21194;-66
2021/01/13 13:34:04;;;;;;;11.53;7.05;;;;;;;-0.10;62.13;98700.80;1764350;80;22819;-66
2021/01/13 13:36:31;;;;;;;11.30;6.20;;;;;;;-0.07;62.01;98704.36;1773860;80;21025;-68
2021/01/13 13:38:59;;;;;;;12.43;7.37;;;;;;;-0.07;62.08;98700.92;1804691;79;21666;-67
2021/01/13 13:41:28;;;;;;;11.25;6.62;;;;;;;-0.01;62.07;98709.38;1804691;79;20990;-67
2021/01/13 13:43:55;;;;;;;8.83;6.12;;;;;;;0.02;62.08;98708.20;1804451;79;21160;-65
2021/01/13 13:46:23;;;;;;;13.07;7.87;;;;;;;0.08;61.87;98710.87;1804043;79;23674;-67
2021/01/13 13:48:51;;;;;;;13.48;7.83;;;;;;;0.12;61.84;98717.39;1804523;79;21074;-65
2021/01/13 13:51:19;;;;;;;13.93;7.67;;;;;;;0.08;61.55;98715.34;1801907;79;21136;-67
2021/01/13 13:57:24;;;;;;;14.47;7.90;;;;;;;-0.01;61.80;98715.97;1802349;79;22250;-67
2021/01/13 14:03:19;;;;;;;12.50;7.40;;;;;;;-0.01;61.94;98717.28;1812497;79;20938;-68
2021/01/13 14:05:47;;;;;;;12.58;6.08;;;;;;;0.05;62.13;98719.16;1812778;77;21555;-67
2021/01/13 14:08:16;;;;;;;12.15;6.95;;;;;;;0.11;62.10;98706.53;1813457;79;21018;-66
2021/01/13 14:10:45;;;;;;;14.93;8.20;;;;;;;0.17;61.96;98717.62;1813684;79;21105;-70
2021/01/13 14:13:13;;;;;;;14.47;7.83;;;;;;;0.23;61.99;98723.16;1810363;79;21195;-66
2021/01/13 14:15:45;;;;;;;12.58;7.50;;;;;;;0.29;61.97;98721.06;1803026;79;21053;-68
2021/01/13 14:18:13;;;;;;;16.70;8.65;;;;;;;0.34;61.79;98725.27;1813521;79;21168;-67
2021/01/13 14:20:41;;;;;;;14.70;8.25;;;;;;;0.35;61.69;98730.84;1813842;79;21626;-68
2021/01/13 14:23:09;;;;;;;17.80;8.73;;;;;;;0.36;61.21;98731.67;1813549;79;21065;-68
2021/01/13 14:25:36;;;;;;;14.38;8.45;;;;;;;0.28;61.24;98732.60;1804338;79;21437;-68
2021/01/13 14:28:04;;;;;;;11.80;7.78;;;;;;;0.29;61.46;98736.36;1813474;79;21663;-67
2021/01/13 14:30:32;;;;;;;12.67;7.97;;;;;;;0.35;61.48;98732.16;1813877;79;21599;-68
2021/01/13 14:33:00;;;;;;;12.37;7.78;;;;;;;0.40;61.32;98731.09;1813430;79;21196;-68
2021/01/13 14:35:28;;;;;;;13.48;7.33;;;;;;;0.43;61.31;98732.02;1807952;79;20978;-68
2021/01/13 14:37:56;;;;;;;12.63;7.92;;;;;;;0.48;61.24;98734.88;1810624;79;22901;-69
2021/01/13 14:40:24;;;;;;;14.65;7.50;;;;;;;0.48;60.78;98738.84;1805650;79;21165;-68
2021/01/13 14:42:52;;;;;;;15.03;8.40;;;;;;;0.40;60.76;98738.16;1813537;79;21132;-67
2021/01/13 14:45:20;;;;;;;16.27;9.15;;;;;;;0.32;60.81;98735.17;1810865;79;21148;-69
2021/01/13 14:47:48;;;;;;;16.45;8.85;;;;;;;0.28;60.79;98743.15;1813648;79;21159;-67
2021/01/13 14:50:15;;;;;;;18.67;8.80;;;;;;;0.22;61.08;98747.88;1653598;86;21391;-68
2021/01/13 14:52:45;;;;;;;14.93;8.50;;;;;;;0.26;61.11;98753.88;1657898;86;21192;-70
2021/01/13 14:55:13;;;;;;;14.47;7.55;;;;;;;0.31;61.11;98754.14;1657501;86;21219;-68
2021/01/13 14:57:41;;;;;;;16.57;9.08;;;;;;;0.36;60.97;98748.30;1658325;86;21111;-66
2021/01/13 15:00:10;;;;;;;14.18;8.23;;;;;;;0.38;60.96;98752.05;1648842;86;21201;-68
2021/01/13 15:02:38;;;;;;;14.20;8.40;;;;;;;0.41;61.00;98755.62;1643146;87;21229;-69
2021/01/13 15:05:08;;;;;;;13.05;7.67;;;;;;;0.44;60.89;98752.60;1643271;87;21877;-69
2021/01/13 15:07:36;;;;;;;16.30;8.75;;;;;;;0.45;60.65;98748.97;1661617;80;21619;-68
2021/01/13 15:10:05;;;;;;;10.68;7.30;;;;;;;0.44;60.66;98752.12;1779298;80;20985;-69
2021/01/13 15:12:35;;;;;;;13.62;9.25;;;;;;;0.45;60.65;98748.97;1775689;79;21020;-68
2021/01/13 15:15:05;;;;;;;15.55;9.18;;;;;;;0.47;60.71;98751.73;1774951;80;21214;-67
2021/01/13 15:17:32;;;;;;;15.72;9.03;;;;;;;0.51;60.84;98756.11;1775252;79;21017;-68
2021/01/13 15:20:00;;;;;;;13.05;8.50;;;;;;;0.51;60.57;98750.31;1773572;79;21119;-69
2021/01/13 15:22:28;;;;;;;12.47;8.13;;;;;;;0.36;60.90;98750.13;1779250;80;21071;-70
2021/01/13 15:24:56;;;;;;;17.10;8.90;;;;;;;0.31;61.23;98752.83;1779185;80;21093;-67
2021/01/13 15:27:24;;;;;;;14.75;8.95;;;;;;;0.31;61.19;98755.46;1779264;80;21453;-69
2021/01/13 15:29:51;;;;;;;14.73;9.65;;;;;;;0.21;61.23;98753.66;1779238;80;20997;-70
2021/01/13 15:32:19;;;;;;;14.87;8.43;;;;;;;0.15;61.61;98757.06;1779266;80;20997;-68
2021/01/13 15:34:49;;;;;;;13.03;7.78;;;;;;;0.18;61.81;98757.99;1778423;80;21163;-67
2021/01/13 15:37:16;;;;;;;16.62;9.38;;;;;;;0.23;61.89;98762.69;1779382;80;21136;-71
2021/01/13 15:39:44;;;;;;;18.27;10.13;;;;;;;0.30;61.80;98758.29;1779129;79;21221;-68
2021/01/13 15:42:13;;;;;;;20.35;10.28;;;;;;;0.35;61.75;98769.06;1779515;80;21051;-69
2021/01/13 15:44:44;;;;;;;15.88;9.18;;;;;;;0.37;61.63;98762.28;1779257;80;21131;-69
2021/01/13 15:47:16;;;;;;;19.73;10.55;;;;;;;0.36;61.43;98762.80;1779239;80;21123;-70
2021/01/13 15:49:46;;;;;;;20.68;10.65;;;;;;;0.35;61.58;98761.16;1776292;80;21378;-69
2021/01/13 15:52:19;;;;;;;13.98;8.53;;;;;;;0.41;61.62;98769.61;1776904;80;21337;-69
2021/01/13 15:54:52;;;;;;;17.48;8.90;;;;;;;0.43;61.48;98768.94;1775420;80;21250;-69
2021/01/13 15:57:26;;;;;;;17.75;9.55;;;;;;;0.43;61.37;98771.57;1779266;80;21076;-68
2021/01/13 15:59:54;;;;;;;18.20;9.80;;;;;;;0.38;61.41;98770.00;1794201;78;20978;-69
2021/01/13 16:02:22;;;;;;;13.43;7.53;;;;;;;0.36;61.42;98775.98;1827646;78;21131;-68
2021/01/13 16:08:28;;;;;;;18.32;9.23;;;;;;;0.28;61.27;98772.98;1826774;78;21009;-71
2021/01/13 16:14:35;;;;;;;17.82;10.08;;;;;;;0.27;61.63;98773.98;1819940;78;21143;-69
2021/01/13 16:20:30;;;;;;;17.12;8.08;;;;;;;0.34;61.50;98767.45;1824467;78;20919;-69